sensor_id;sensor_type;location;lat;lon;timestamp;pressure;altitude;pressure_sealevel;temperature;humidity
43878;BME280;29815;48.184;11.268;2022-11-04T00:01:03;94638.06;;;10.81;100.00
43878;BME280;29815;48.184;11.268;2022-11-04T00:03:33;94651.22;;;10.82;100.00
43878;BME280;29815;48.184;11.268;2022-11-04T00:06:03;94658.72;;;10.85;100.00
43878;BME280;29815;48.184;11.268;2022-11-04T00:08:33;94662.50;;;10.84;100.00
43878;BME280;29815;48.184;11.268;2022-11-04T00:11:04;94652.59;;;10.80;100.00
43878;BME280;29815;48.184;11.268;2022-11-04T00:13:51;94654.00;;;10.77;100.00
43878;BME280;29815;48.184;11.268;2022-11-04T00:16:21;94672.84;;;10.77;100.00
43878;BME280;29815;48.184;11.268;2022-11-04T00:19:08;94659.44;;;10.72;100.00
43878;BME280;29815;48.184;11.268;2022-11-04T00:21:37;94674.84;;;10.67;100.00
43878;BME280;29815;48.184;11.268;2022-11-04T00:24:24;94665.88;;;10.58;100.00
43878;BME280;29815;48.184;11.268;2022-11-04T00:27:15;94670.38;;;10.62;100.00
43878;BME280;29815;48.184;11.268;2022-11-04T00:30:06;94671.53;;;10.56;100.00
43878;BME280;29815;48.184;11.268;2022-11-04T00:32:37;94682.44;;;10.46;100.00
43878;BME280;29815;48.184;11.268;2022-11-04T00:35:24;94686.88;;;10.37;100.00
43878;BME280;29815;48.184;11.268;2022-11-04T00:37:53;94685.03;;;10.32;100.00
43878;BME280;29815;48.184;11.268;2022-11-04T00:40:23;94701.00;;;10.24;100.00
43878;BME280;29815;48.184;11.268;2022-11-04T00:42:53;94693.47;;;10.26;100.00
43878;BME280;29815;48.184;11.268;2022-11-04T00:45:23;94701.88;;;10.19;100.00
43878;BME280;29815;48.184;11.268;2022-11-04T00:47:52;94717.53;;;10.12;100.00
43878;BME280;29815;48.184;11.268;2022-11-04T00:50:22;94711.13;;;10.08;100.00
43878;BME280;29815;48.184;11.268;2022-11-04T00:52:51;94710.91;;;10.04;100.00
43878;BME280;29815;48.184;11.268;2022-11-04T00:55:27;94721.75;;;9.94;100.00
43878;BME280;29815;48.184;11.268;2022-11-04T00:57:58;94732.91;;;9.82;100.00
43878;BME280;29815;48.184;11.268;2022-11-04T01:00:28;94727.53;;;9.82;100.00
43878;BME280;29815;48.184;11.268;2022-11-04T01:02:57;94731.94;;;9.73;100.00
43878;BME280;29815;48.184;11.268;2022-11-04T01:05:28;94728.19;;;9.69;100.00
43878;BME280;29815;48.184;11.268;2022-11-04T01:07:57;94734.47;;;9.60;100.00
43878;BME280;29815;48.184;11.268;2022-11-04T01:10:26;94739.09;;;9.54;100.00
43878;BME280;29815;48.184;11.268;2022-11-04T01:12:57;94736.53;;;9.39;100.00
43878;BME280;29815;48.184;11.268;2022-11-04T01:15:27;94734.94;;;9.38;100.00
43878;BME280;29815;48.184;11.268;2022-11-04T01:17:56;94733.28;;;9.42;100.00
43878;BME280;29815;48.184;11.268;2022-11-04T01:20:25;94738.72;;;9.37;100.00
43878;BME280;29815;48.184;11.268;2022-11-04T01:22:55;94737.44;;;9.29;100.00
43878;BME280;29815;48.184;11.268;2022-11-04T01:25:25;94741.50;;;9.27;100.00
43878;BME280;29815;48.184;11.268;2022-11-04T01:27:54;94737.25;;;9.21;100.00
43878;BME280;29815;48.184;11.268;2022-11-04T01:30:25;94742.06;;;9.24;100.00
43878;BME280;29815;48.184;11.268;2022-11-04T01:32:55;94728.38;;;9.20;100.00
43878;BME280;29815;48.184;11.268;2022-11-04T01:35:24;94728.16;;;9.16;100.00
43878;BME280;29815;48.184;11.268;2022-11-04T01:37:54;94723.94;;;9.05;100.00
43878;BME280;29815;48.184;11.268;2022-11-04T01:40:24;94728.28;;;9.01;100.00
43878;BME280;29815;48.184;11.268;2022-11-04T01:42:53;94725.81;;;9.05;100.00
43878;BME280;29815;48.184;11.268;2022-11-04T01:45:24;94725.88;;;9.00;100.00
43878;BME280;29815;48.184;11.268;2022-11-04T01:47:58;94730.44;;;8.99;100.00
43878;BME280;29815;48.184;11.268;2022-11-04T01:50:32;94727.25;;;8.92;100.00
43878;BME280;29815;48.184;11.268;2022-11-04T01:53:06;94720.53;;;8.95;100.00
43878;BME280;29815;48.184;11.268;2022-11-04T01:55:42;94713.84;;;8.92;100.00
43878;BME280;29815;48.184;11.268;2022-11-04T01:58:17;94720.50;;;9.00;100.00
43878;BME280;29815;48.184;11.268;2022-11-04T02:00:51;94727.22;;;8.97;100.00
43878;BME280;29815;48.184;11.268;2022-11-04T02:03:25;94730.97;;;9.01;100.00
43878;BME280;29815;48.184;11.268;2022-11-04T02:05:57;94715.41;;;8.98;100.00
43878;BME280;29815;48.184;11.268;2022-11-04T02:08:28;94714.34;;;8.99;100.00
43878;BME280;29815;48.184;11.268;2022-11-04T02:11:00;94729.63;;;8.99;100.00
43878;BME280;29815;48.184;11.268;2022-11-04T02:13:34;94720.53;;;8.95;100.00
43878;BME280;29815;48.184;11.268;2022-11-04T02:16:11;94724.06;;;8.85;100.00
43878;BME280;29815;48.184;11.268;2022-11-04T02:18:56;94717.91;;;8.85;100.00
43878;BME280;29815;48.184;11.268;2022-11-04T02:22:05;94719.78;;;8.84;100.00
43878;BME280;29815;48.184;11.268;2022-11-04T02:25:16;94723.28;;;8.85;100.00
43878;BME280;29815;48.184;11.268;2022-11-04T02:28:23;94720.34;;;8.81;100.00
43878;BME280;29815;48.184;11.268;2022-11-04T02:31:11;94714.94;;;8.86;100.00
43878;BME280;29815;48.184;11.268;2022-11-04T02:33:49;94722.47;;;8.84;100.00
43878;BME280;29815;48.184;11.268;2022-11-04T02:36:30;94721.47;;;8.75;100.00
43878;BME280;29815;48.184;11.268;2022-11-04T02:39:08;94722.78;;;8.77;100.00
43878;BME280;29815;48.184;11.268;2022-11-04T02:41:52;94723.13;;;8.71;100.00
43878;BME280;29815;48.184;11.268;2022-11-04T02:44:30;94730.38;;;8.65;100.00
43878;BME280;29815;48.184;11.268;2022-11-04T02:47:08;94722.59;;;8.69;100.00
43878;BME280;29815;48.184;11.268;2022-11-04T02:49:49;94727.41;;;8.72;100.00
43878;BME280;29815;48.184;11.268;2022-11-04T02:52:26;94726.13;;;8.59;100.00
43878;BME280;29815;48.184;11.268;2022-11-04T02:55:03;94718.03;;;8.69;100.00
43878;BME280;29815;48.184;11.268;2022-11-04T02:57:36;94717.75;;;8.71;100.00
43878;BME280;29815;48.184;11.268;2022-11-04T03:00:09;94717.47;;;8.72;100.00
43878;BME280;29815;48.184;11.268;2022-11-04T03:02:47;94720.97;;;8.73;100.00
43878;BME280;29815;48.184;11.268;2022-11-04T03:05:24;94725.75;;;8.76;100.00
43878;BME280;29815;48.184;11.268;2022-11-04T03:07:57;94712.56;;;8.79;100.00
43878;BME280;29815;48.184;11.268;2022-11-04T03:10:40;94704.50;;;8.85;100.00
43878;BME280;29815;48.184;11.268;2022-11-04T03:13:14;94709.16;;;8.74;100.00
43878;BME280;29815;48.184;11.268;2022-11-04T03:15:49;94703.19;;;8.77;100.00
43878;BME280;29815;48.184;11.268;2022-11-04T03:18:25;94701.41;;;8.67;100.00
43878;BME280;29815;48.184;11.268;2022-11-04T03:21:03;94691.16;;;8.74;100.00
43878;BME280;29815;48.184;11.268;2022-11-04T03:23:35;94692.56;;;8.67;100.00
43878;BME280;29815;48.184;11.268;2022-11-04T03:26:10;94699.28;;;8.64;100.00
43878;BME280;29815;48.184;11.268;2022-11-04T03:28:48;94711.03;;;8.73;100.00
43878;BME280;29815;48.184;11.268;2022-11-04T03:31:29;94710.69;;;8.80;100.00
43878;BME280;29815;48.184;11.268;2022-11-04T03:34:06;94706.09;;;8.86;100.00
43878;BME280;29815;48.184;11.268;2022-11-04T03:36:36;94695.41;;;8.80;100.00
43878;BME280;29815;48.184;11.268;2022-11-04T03:39:06;94704.81;;;8.78;100.00
43878;BME280;29815;48.184;11.268;2022-11-04T03:41:39;94704.00;;;8.77;100.00
43878;BME280;29815;48.184;11.268;2022-11-04T03:44:11;94711.03;;;8.73;100.00
43878;BME280;29815;48.184;11.268;2022-11-04T03:46:41;94704.28;;;8.76;100.00
43878;BME280;29815;48.184;11.268;2022-11-04T03:49:12;94703.97;;;8.82;100.00
43878;BME280;29815;48.184;11.268;2022-11-04T03:51:43;94704.28;;;8.76;100.00
43878;BME280;29815;48.184;11.268;2022-11-04T03:54:13;94703.81;;;8.69;100.00
43878;BME280;29815;48.184;11.268;2022-11-04T03:57:09;94703.59;;;8.60;100.00
43878;BME280;29815;48.184;11.268;2022-11-04T04:00:06;94703.34;;;8.57;100.00
43878;BME280;29815;48.184;11.268;2022-11-04T04:02:58;94702.56;;;8.51;100.00
43878;BME280;29815;48.184;11.268;2022-11-04T04:05:37;94695.94;;;8.43;100.00
43878;BME280;29815;48.184;11.268;2022-11-04T04:08:15;94690.59;;;8.38;100.00
43878;BME280;29815;48.184;11.268;2022-11-04T04:10:57;94682.81;;;8.37;100.00
43878;BME280;29815;48.184;11.268;2022-11-04T04:13:37;94684.16;;;8.34;100.00
43878;BME280;29815;48.184;11.268;2022-11-04T04:16:16;94680.97;;;8.32;100.00
43878;BME280;29815;48.184;11.268;2022-11-04T04:18:58;94679.59;;;8.30;100.00
43878;BME280;29815;48.184;11.268;2022-11-04T04:21:39;94697.31;;;8.26;100.00
43878;BME280;29815;48.184;11.268;2022-11-04T04:24:14;94702.94;;;8.34;100.00
43878;BME280;29815;48.184;11.268;2022-11-04T04:27:03;94711.22;;;8.38;100.00
43878;BME280;29815;48.184;11.268;2022-11-04T04:29:51;94703.47;;;8.36;100.00
43878;BME280;29815;48.184;11.268;2022-11-04T04:32:23;94698.91;;;8.37;100.00
43878;BME280;29815;48.184;11.268;2022-11-04T04:34:54;94690.84;;;8.37;100.00
43878;BME280;29815;48.184;11.268;2022-11-04T04:37:47;94706.41;;;8.40;100.00
43878;BME280;29815;48.184;11.268;2022-11-04T04:40:19;94706.09;;;8.46;100.00
43878;BME280;29815;48.184;11.268;2022-11-04T04:43:14;94699.06;;;8.51;100.00
43878;BME280;29815;48.184;11.268;2022-11-04T04:46:02;94680.88;;;8.47;100.00
43878;BME280;29815;48.184;11.268;2022-11-04T04:48:31;94679.03;;;8.43;100.00
43878;BME280;29815;48.184;11.268;2022-11-04T04:51:01;94691.63;;;8.42;100.00
43878;BME280;29815;48.184;11.268;2022-11-04T04:53:32;94714.16;;;8.46;100.00
43878;BME280;29815;48.184;11.268;2022-11-04T04:56:02;94714.38;;;8.50;100.00
43878;BME280;29815;48.184;11.268;2022-11-04T04:58:31;94706.78;;;8.62;100.00
43878;BME280;29815;48.184;11.268;2022-11-04T05:01:00;94717.75;;;8.71;100.00
43878;BME280;29815;48.184;11.268;2022-11-04T05:03:31;94717.00;;;8.60;100.00
43878;BME280;29815;48.184;11.268;2022-11-04T05:06:00;94715.91;;;8.66;100.00
43878;BME280;29815;48.184;11.268;2022-11-04T05:08:31;94711.09;;;8.63;100.00
43878;BME280;29815;48.184;11.268;2022-11-04T05:11:02;94709.22;;;8.59;100.00
43878;BME280;29815;48.184;11.268;2022-11-04T05:13:31;94706.53;;;8.59;100.00
43878;BME280;29815;48.184;11.268;2022-11-04T05:16:04;94714.31;;;8.60;100.00
43878;BME280;29815;48.184;11.268;2022-11-04T05:18:35;94717.00;;;8.60;100.00
43878;BME280;29815;48.184;11.268;2022-11-04T05:21:07;94733.63;;;8.57;100.00
43878;BME280;29815;48.184;11.268;2022-11-04T05:23:40;94729.63;;;8.55;100.00
43878;BME280;29815;48.184;11.268;2022-11-04T05:26:10;94726.94;;;8.55;100.00
43878;BME280;29815;48.184;11.268;2022-11-04T05:28:40;94721.66;;;8.44;100.00
43878;BME280;29815;48.184;11.268;2022-11-04T05:31:10;94732.13;;;8.31;100.00
43878;BME280;29815;48.184;11.268;2022-11-04T05:33:39;94739.72;;;8.13;100.00
43878;BME280;29815;48.184;11.268;2022-11-04T05:36:11;94734.63;;;8.12;100.00
43878;BME280;29815;48.184;11.268;2022-11-04T05:38:48;94734.41;;;7.98;100.00
43878;BME280;29815;48.184;11.268;2022-11-04T05:41:18;94742.19;;;7.95;100.00
43878;BME280;29815;48.184;11.268;2022-11-04T05:43:55;94742.25;;;7.79;100.00
43878;BME280;29815;48.184;11.268;2022-11-04T05:46:27;94724.56;;;7.73;100.00
43878;BME280;29815;48.184;11.268;2022-11-04T05:48:57;94709.56;;;7.77;100.00
43878;BME280;29815;48.184;11.268;2022-11-04T05:51:27;94701.03;;;7.65;100.00
43878;BME280;29815;48.184;11.268;2022-11-04T05:53:58;94710.69;;;7.56;100.00
43878;BME280;29815;48.184;11.268;2022-11-04T05:56:28;94718.19;;;7.59;100.00
43878;BME280;29815;48.184;11.268;2022-11-04T05:58:57;94727.31;;;7.53;100.00
43878;BME280;29815;48.184;11.268;2022-11-04T06:01:33;94728.38;;;7.47;100.00
43878;BME280;29815;48.184;11.268;2022-11-04T06:04:04;94722.22;;;7.41;100.00
43878;BME280;29815;48.184;11.268;2022-11-04T06:06:35;94731.59;;;7.39;100.00
43878;BME280;29815;48.184;11.268;2022-11-04T06:09:07;94735.91;;;7.30;100.00
43878;BME280;29815;48.184;11.268;2022-11-04T06:11:37;94749.56;;;7.28;100.00
43878;BME280;29815;48.184;11.268;2022-11-04T06:14:07;94755.72;;;7.24;100.00
43878;BME280;29815;48.184;11.268;2022-11-04T06:16:38;94753.03;;;7.19;100.00
43878;BME280;29815;48.184;11.268;2022-11-04T06:19:07;94740.44;;;7.14;100.00
43878;BME280;29815;48.184;11.268;2022-11-04T06:21:42;94752.75;;;7.15;100.00
43878;BME280;29815;48.184;11.268;2022-11-04T06:24:13;94758.09;;;7.15;100.00
43878;BME280;29815;48.184;11.268;2022-11-04T06:26:43;94772.31;;;7.10;100.00
43878;BME280;29815;48.184;11.268;2022-11-04T06:29:12;94770.41;;;7.16;100.00
43878;BME280;29815;48.184;11.268;2022-11-04T06:31:42;94754.66;;;7.09;100.00
43878;BME280;29815;48.184;11.268;2022-11-04T06:34:11;94755.44;;;7.10;100.00
43878;BME280;29815;48.184;11.268;2022-11-04T06:36:41;94766.41;;;7.08;100.00
43878;BME280;29815;48.184;11.268;2022-11-04T06:39:10;94754.63;;;7.04;100.00
43878;BME280;29815;48.184;11.268;2022-11-04T06:41:41;94747.66;;;7.13;100.00
43878;BME280;29815;48.184;11.268;2022-11-04T06:44:14;94760.53;;;7.06;100.00
43878;BME280;29815;48.184;11.268;2022-11-04T06:46:44;94752.78;;;7.05;100.00
43878;BME280;29815;48.184;11.268;2022-11-04T06:49:16;94750.34;;;7.03;100.00
43878;BME280;29815;48.184;11.268;2022-11-04T06:51:47;94764.81;;;7.07;100.00
43878;BME280;29815;48.184;11.268;2022-11-04T06:54:17;94774.97;;;7.05;100.00
43878;BME280;29815;48.184;11.268;2022-11-04T06:56:48;94763.47;;;7.05;100.00
43878;BME280;29815;48.184;11.268;2022-11-04T06:59:19;94733.22;;;6.99;100.00
43878;BME280;29815;48.184;11.268;2022-11-04T07:01:49;94731.34;;;7.00;100.00
43878;BME280;29815;48.184;11.268;2022-11-04T07:04:19;94731.09;;;7.01;100.00
43878;BME280;29815;48.184;11.268;2022-11-04T07:06:49;94726.28;;;6.98;100.00
43878;BME280;29815;48.184;11.268;2022-11-04T07:09:18;94721.47;;;7.05;100.00
43878;BME280;29815;48.184;11.268;2022-11-04T07:11:49;94726.00;;;7.05;100.00
43878;BME280;29815;48.184;11.268;2022-11-04T07:14:18;94730.03;;;7.02;100.00
43878;BME280;29815;48.184;11.268;2022-11-04T07:16:49;94734.31;;;7.03;100.00
43878;BME280;29815;48.184;11.268;2022-11-04T07:19:19;94733.78;;;7.01;100.00
43878;BME280;29815;48.184;11.268;2022-11-04T07:21:48;94736.97;;;7.03;100.00
43878;BME280;29815;48.184;11.268;2022-11-04T07:24:18;94743.66;;;7.01;100.00
43878;BME280;29815;48.184;11.268;2022-11-04T07:26:49;94742.88;;;7.00;100.00
43878;BME280;29815;48.184;11.268;2022-11-04T07:29:18;94763.19;;;7.01;100.00
43878;BME280;29815;48.184;11.268;2022-11-04T07:31:48;94767.22;;;7.04;100.00
43878;BME280;29815;48.184;11.268;2022-11-04T07:34:17;94769.91;;;7.09;100.00
43878;BME280;29815;48.184;11.268;2022-11-04T07:36:46;94779.78;;;7.03;100.00
43878;BME280;29815;48.184;11.268;2022-11-04T07:39:16;94788.06;;;7.02;100.00
43878;BME280;29815;48.184;11.268;2022-11-04T07:41:45;94784.59;;;7.01;100.00
43878;BME280;29815;48.184;11.268;2022-11-04T07:44:16;94780.84;;;7.02;100.00
43878;BME280;29815;48.184;11.268;2022-11-04T07:46:46;94784.34;;;7.03;100.00
43878;BME280;29815;48.184;11.268;2022-11-04T07:49:15;94778.97;;;7.03;100.00
43878;BME280;29815;48.184;11.268;2022-11-04T07:51:44;94772.84;;;7.07;100.00
43878;BME280;29815;48.184;11.268;2022-11-04T07:54:15;94776.31;;;7.08;100.00
43878;BME280;29815;48.184;11.268;2022-11-04T07:56:45;94791.28;;;7.14;100.00
43878;BME280;29815;48.184;11.268;2022-11-04T07:59:15;94801.19;;;7.13;100.00
43878;BME280;29815;48.184;11.268;2022-11-04T08:01:45;94819.66;;;7.10;100.00
43878;BME280;29815;48.184;11.268;2022-11-04T08:04:14;94818.59;;;7.06;100.00
43878;BME280;29815;48.184;11.268;2022-11-04T08:06:44;94815.38;;;7.04;100.00
43878;BME280;29815;48.184;11.268;2022-11-04T08:09:13;94800.38;;;7.03;100.00
43878;BME280;29815;48.184;11.268;2022-11-04T08:11:43;94807.09;;;7.05;100.00
43878;BME280;29815;48.184;11.268;2022-11-04T08:14:12;94805.50;;;7.09;100.00
43878;BME280;29815;48.184;11.268;2022-11-04T08:16:43;94797.47;;;7.09;100.00
43878;BME280;29815;48.184;11.268;2022-11-04T08:19:13;94795.84;;;7.08;100.00
43878;BME280;29815;48.184;11.268;2022-11-04T08:21:42;94795.56;;;7.05;100.00
43878;BME280;29815;48.184;11.268;2022-11-04T08:24:12;94802.25;;;7.02;100.00
43878;BME280;29815;48.184;11.268;2022-11-04T08:26:41;94793.44;;;7.02;100.00
43878;BME280;29815;48.184;11.268;2022-11-04T08:29:10;94780.59;;;6.99;100.00
43878;BME280;29815;48.184;11.268;2022-11-04T08:31:42;94769.88;;;6.99;100.00
43878;BME280;29815;48.184;11.268;2022-11-04T08:34:12;94764.25;;;6.95;100.00
43878;BME280;29815;48.184;11.268;2022-11-04T08:36:41;94761.06;;;7.03;100.00
43878;BME280;29815;48.184;11.268;2022-11-04T08:39:11;94754.91;;;7.03;100.00
43878;BME280;29815;48.184;11.268;2022-11-04T08:41:42;94739.94;;;7.07;100.00
43878;BME280;29815;48.184;11.268;2022-11-04T08:44:12;94736.44;;;7.11;100.00
43878;BME280;29815;48.184;11.268;2022-11-04T08:46:45;94753.84;;;7.09;100.00
43878;BME280;29815;48.184;11.268;2022-11-04T08:49:15;94746.59;;;7.14;100.00
43878;BME280;29815;48.184;11.268;2022-11-04T08:51:48;94751.41;;;7.12;100.00
43878;BME280;29815;48.184;11.268;2022-11-04T08:54:24;94746.88;;;7.13;100.00
43878;BME280;29815;48.184;11.268;2022-11-04T08:56:54;94740.44;;;7.14;100.00
43878;BME280;29815;48.184;11.268;2022-11-04T08:59:24;94724.13;;;7.16;100.00
43878;BME280;29815;48.184;11.268;2022-11-04T09:01:55;94727.06;;;7.14;100.00
43878;BME280;29815;48.184;11.268;2022-11-04T09:04:24;94731.63;;;7.13;100.00
43878;BME280;29815;48.184;11.268;2022-11-04T09:06:54;94725.19;;;7.14;100.00
43878;BME280;29815;48.184;11.268;2022-11-04T09:09:24;94727.88;;;7.20;100.00
43878;BME280;29815;48.184;11.268;2022-11-04T09:11:53;94730.53;;;7.20;100.00
43878;BME280;29815;48.184;11.268;2022-11-04T09:14:23;94723.59;;;7.24;100.00
43878;BME280;29815;48.184;11.268;2022-11-04T09:16:52;94724.13;;;7.26;100.00
43878;BME280;29815;48.184;11.268;2022-11-04T09:19:25;94720.66;;;7.25;100.00
43878;BME280;29815;48.184;11.268;2022-11-04T09:21:54;94727.88;;;7.30;100.00
43878;BME280;29815;48.184;11.268;2022-11-04T09:24:24;94730.81;;;7.33;100.00
43878;BME280;29815;48.184;11.268;2022-11-04T09:26:53;94730.28;;;7.36;100.00
43878;BME280;29815;48.184;11.268;2022-11-04T09:29:23;94726.25;;;7.39;100.00
43878;BME280;29815;48.184;11.268;2022-11-04T09:31:53;94730.53;;;7.40;100.00
43878;BME280;29815;48.184;11.268;2022-11-04T09:34:24;94718.19;;;7.44;100.00
43878;BME280;29815;48.184;11.268;2022-11-04T09:36:54;94728.09;;;7.43;100.00
43878;BME280;29815;48.184;11.268;2022-11-04T09:39:25;94728.66;;;7.45;100.00
43878;BME280;29815;48.184;11.268;2022-11-04T09:42:14;94721.94;;;7.43;100.00
43878;BME280;29815;48.184;11.268;2022-11-04T09:44:52;94722.53;;;7.35;100.00
43878;BME280;29815;48.184;11.268;2022-11-04T09:47:50;94721.72;;;7.29;100.00
43878;BME280;29815;48.184;11.268;2022-11-04T09:50:26;94724.13;;;7.36;100.00
43878;BME280;29815;48.184;11.268;2022-11-04T09:53:03;94731.63;;;7.34;100.00
43878;BME280;29815;48.184;11.268;2022-11-04T09:55:40;94741.53;;;7.33;100.00
43878;BME280;29815;48.184;11.268;2022-11-04T09:58:17;94727.88;;;7.30;100.00
43878;BME280;29815;48.184;11.268;2022-11-04T10:00:56;94730.00;;;7.28;100.00
43878;BME280;29815;48.184;11.268;2022-11-04T10:03:47;94731.88;;;7.22;100.00
43878;BME280;29815;48.184;11.268;2022-11-04T10:06:37;94717.44;;;7.23;100.00
43878;BME280;29815;48.184;11.268;2022-11-04T10:09:28;94705.94;;;7.23;100.00
43878;BME280;29815;48.184;11.268;2022-11-04T10:12:13;94712.63;;;7.25;100.00
43878;BME280;29815;48.184;11.268;2022-11-04T10:15:11;94700.84;;;7.21;100.00
43878;BME280;29815;48.184;11.268;2022-11-04T10:18:03;94699.50;;;7.24;100.00
43878;BME280;29815;48.184;11.268;2022-11-04T10:20:52;94699.22;;;7.30;100.00
43878;BME280;29815;48.184;11.268;2022-11-04T10:23:32;94698.44;;;7.30;100.00
43878;BME280;29815;48.184;11.268;2022-11-04T10:26:13;94691.22;;;7.30;100.00
43878;BME280;29815;48.184;11.268;2022-11-04T10:28:50;94683.97;;;7.31;100.00
43878;BME280;29815;48.184;11.268;2022-11-04T10:31:23;94689.06;;;7.32;100.00
43878;BME280;29815;48.184;11.268;2022-11-04T10:33:57;94685.84;;;7.35;100.00
43878;BME280;29815;48.184;11.268;2022-11-04T10:36:31;94681.03;;;7.32;100.00
43878;BME280;29815;48.184;11.268;2022-11-04T10:39:10;94673.53;;;7.34;100.00
43878;BME280;29815;48.184;11.268;2022-11-04T10:41:45;94683.97;;;7.36;100.00
43878;BME280;29815;48.184;11.268;2022-11-04T10:44:21;94677.78;;;7.40;100.00
43878;BME280;29815;48.184;11.268;2022-11-04T10:47:02;94668.41;;;7.43;100.00
43878;BME280;29815;48.184;11.268;2022-11-04T10:49:46;94671.09;;;7.48;100.00
43878;BME280;29815;48.184;11.268;2022-11-04T10:52:41;94672.41;;;7.51;100.00
43878;BME280;29815;48.184;11.268;2022-11-04T10:55:26;94680.97;;;7.53;100.00
43878;BME280;29815;48.184;11.268;2022-11-04T10:58:00;94683.66;;;7.58;100.00
43878;BME280;29815;48.184;11.268;2022-11-04T11:00:35;94678.81;;;7.65;100.00
43878;BME280;29815;48.184;11.268;2022-11-04T11:03:25;94673.41;;;7.70;100.00
43878;BME280;29815;48.184;11.268;2022-11-04T11:06:23;94672.59;;;7.74;100.00
43878;BME280;29815;48.184;11.268;2022-11-04T11:08:58;94669.91;;;7.79;100.00
43878;BME280;29815;48.184;11.268;2022-11-04T11:11:45;94671.53;;;7.80;100.00
43878;BME280;29815;48.184;11.268;2022-11-04T11:14:32;94675.53;;;7.78;100.00
43878;BME280;29815;48.184;11.268;2022-11-04T11:17:22;94672.31;;;7.86;100.00
43878;BME280;29815;48.184;11.268;2022-11-04T11:19:58;94684.63;;;7.87;100.00
43878;BME280;29815;48.184;11.268;2022-11-04T11:22:37;94686.50;;;7.87;100.00
43878;BME280;29815;48.184;11.268;2022-11-04T11:25:25;94683.56;;;7.88;100.00
43878;BME280;29815;48.184;11.268;2022-11-04T11:27:59;94682.47;;;7.89;100.00
43878;BME280;29815;48.184;11.268;2022-11-04T11:30:32;94679.00;;;7.89;100.00
43878;BME280;29815;48.184;11.268;2022-11-04T11:33:05;94681.94;;;7.92;100.00
43878;BME280;29815;48.184;11.268;2022-11-04T11:35:49;94692.09;;;7.95;100.00
43878;BME280;29815;48.184;11.268;2022-11-04T11:38:22;94698.25;;;7.96;100.00
43878;BME280;29815;48.184;11.268;2022-11-04T11:41:01;94706.31;;;7.91;100.00
43878;BME280;29815;48.184;11.268;2022-11-04T11:43:54;94693.16;;;7.94;100.00
43878;BME280;29815;48.184;11.268;2022-11-04T11:46:27;94698.78;;;7.98;100.00
43878;BME280;29815;48.184;11.268;2022-11-04T11:48:59;94701.97;;;8.00;100.00
43878;BME280;29815;48.184;11.268;2022-11-04T11:51:32;94701.72;;;8.01;100.00
43878;BME280;29815;48.184;11.268;2022-11-04T11:54:15;94699.56;;;8.03;100.00
43878;BME280;29815;48.184;11.268;2022-11-04T11:56:52;94702.50;;;8.02;100.00
43878;BME280;29815;48.184;11.268;2022-11-04T11:59:48;94700.63;;;8.02;100.00
43878;BME280;29815;48.184;11.268;2022-11-04T12:02:52;94697.13;;;8.07;100.00
43878;BME280;29815;48.184;11.268;2022-11-04T12:05:31;94701.16;;;8.04;100.00
43878;BME280;29815;48.184;11.268;2022-11-04T12:08:45;94712.44;;;8.01;100.00
43878;BME280;29815;48.184;11.268;2022-11-04T12:11:55;94700.91;;;8.01;100.00
43878;BME280;29815;48.184;11.268;2022-11-04T12:14:45;94703.84;;;7.99;100.00
43878;BME280;29815;48.184;11.268;2022-11-04T12:17:33;94702.50;;;8.02;100.00
43878;BME280;29815;48.184;11.268;2022-11-04T12:20:31;94698.22;;;8.01;100.00
43878;BME280;29815;48.184;11.268;2022-11-04T12:23:13;94699.84;;;8.02;100.00
43878;BME280;29815;48.184;11.268;2022-11-04T12:25:58;94695.56;;;8.01;100.00
43878;BME280;29815;48.184;11.268;2022-11-04T12:28:51;94693.66;;;8.01;100.00
43878;BME280;29815;48.184;11.268;2022-11-04T12:31:33;94688.59;;;8.00;100.00
43878;BME280;29815;48.184;11.268;2022-11-04T12:34:23;94695.56;;;8.01;100.00
43878;BME280;29815;48.184;11.268;2022-11-04T12:37:14;94686.72;;;8.00;100.00
43878;BME280;29815;48.184;11.268;2022-11-04T12:40:10;94673.59;;;7.99;100.00
43878;BME280;29815;48.184;11.268;2022-11-04T12:43:00;94677.59;;;8.01;100.00
43878;BME280;29815;48.184;11.268;2022-11-04T12:45:51;94678.94;;;8.04;100.00
43878;BME280;29815;48.184;11.268;2022-11-04T12:48:47;94681.88;;;8.02;100.00
43878;BME280;29815;48.184;11.268;2022-11-04T12:51:36;94692.88;;;8.01;100.00
43878;BME280;29815;48.184;11.268;2022-11-04T12:54:34;94699.56;;;7.98;100.00
43878;BME280;29815;48.184;11.268;2022-11-04T12:57:18;94708.94;;;8.06;100.00
43878;BME280;29815;48.184;11.268;2022-11-04T13:00:08;94723.16;;;8.01;100.00
43878;BME280;29815;48.184;11.268;2022-11-04T13:02:44;94738.69;;;8.04;100.00
43878;BME280;29815;48.184;11.268;2022-11-04T13:05:32;94749.41;;;7.99;100.00
43878;BME280;29815;48.184;11.268;2022-11-04T13:08:20;94742.44;;;7.98;100.00
43878;BME280;29815;48.184;11.268;2022-11-04T13:10:56;94744.31;;;7.98;100.00
43878;BME280;29815;48.184;11.268;2022-11-04T13:13:33;94740.06;;;7.92;100.00
43878;BME280;29815;48.184;11.268;2022-11-04T13:16:08;94745.19;;;7.88;100.00
43878;BME280;29815;48.184;11.268;2022-11-04T13:18:40;94742.25;;;7.79;100.00
43878;BME280;29815;48.184;11.268;2022-11-04T13:21:18;94740.91;;;7.72;100.00
43878;BME280;29815;48.184;11.268;2022-11-04T13:23:53;94741.44;;;7.69;100.00
43878;BME280;29815;48.184;11.268;2022-11-04T13:26:26;94738.25;;;7.67;100.00
43878;BME280;29815;48.184;11.268;2022-11-04T13:29:00;94744.69;;;7.66;100.00
43878;BME280;29815;48.184;11.268;2022-11-04T13:31:47;94754.88;;;7.64;100.00
43878;BME280;29815;48.184;11.268;2022-11-04T13:34:28;94748.72;;;7.63;100.00
43878;BME280;29815;48.184;11.268;2022-11-04T13:37:15;94750.31;;;7.64;100.00